createdAt,value
2018-11-04T00:00:23.482Z,95788.83
2018-11-04T00:02:55.296Z,95792.94
2018-11-04T00:05:27.144Z,95792.05
2018-11-04T00:07:59.065Z,95775.22
2018-11-04T00:10:30.837Z,95772.75
2018-11-04T00:13:02.717Z,95775.28
2018-11-04T00:15:34.514Z,95767.12
2018-11-04T00:18:06.543Z,95768.78
2018-11-04T00:20:40.131Z,95760.37
2018-11-04T00:23:11.921Z,95757.56
2018-11-04T00:25:43.835Z,95760.20
2018-11-04T00:28:15.894Z,95762.31
2018-11-04T00:30:47.771Z,95760.80
2018-11-04T00:33:19.612Z,95757.77
2018-11-04T00:35:51.437Z,95755.25
2018-11-04T00:38:23.259Z,95754.97
2018-11-04T00:40:55.103Z,95756.85
2018-11-04T00:43:26.935Z,95750.72
2018-11-04T00:45:58.760Z,95751.73
2018-11-04T00:48:30.622Z,95750.91
2018-11-04T00:51:02.396Z,95755.27
2018-11-04T00:53:35.773Z,95759.05
2018-11-04T00:56:06.058Z,95758.66
2018-11-04T00:58:39.784Z,95750.58
2018-11-04T01:01:09.692Z,95744.38
2018-11-04T01:03:41.490Z,95747.42
2018-11-04T01:06:13.333Z,95740.05
2018-11-04T01:08:45.150Z,95742.81
2018-11-04T01:11:17.015Z,95732.87
2018-11-04T01:13:48.809Z,95728.09
2018-11-04T01:16:20.630Z,95717.14
2018-11-04T01:18:52.436Z,95724.23
2018-11-04T01:21:24.269Z,95720.94
2018-11-04T01:23:56.126Z,95712.30
2018-11-04T01:26:27.957Z,95714.23
2018-11-04T01:28:59.767Z,95713.51
2018-11-04T01:31:31.609Z,95715.72
2018-11-04T01:34:03.785Z,95716.72
2018-11-04T01:36:38.342Z,95710.65
2018-11-04T01:39:11.311Z,95704.30
2018-11-04T01:41:43.162Z,95706.81
2018-11-04T01:44:14.960Z,95703.70
2018-11-04T01:46:46.786Z,95700.10
2018-11-04T01:49:18.572Z,95699.33
2018-11-04T01:51:50.398Z,95692.52
2018-11-04T01:54:25.241Z,95693.08
2018-11-04T01:56:57.097Z,95683.59
2018-11-04T01:59:28.936Z,95668.78
2018-11-04T02:02:00.777Z,95670.72
2018-11-04T02:04:33.068Z,95668.08
2018-11-04T02:07:04.895Z,95664.05
2018-11-04T02:09:36.702Z,95666.94
2018-11-04T02:12:08.833Z,95654.66
2018-11-04T02:14:40.644Z,95655.91
2018-11-04T02:17:12.476Z,95642.91
2018-11-04T02:19:46.483Z,95636.39
2018-11-04T02:22:16.134Z,95637.94
2018-11-04T02:24:47.948Z,95636.77
2018-11-04T02:27:19.828Z,95631.84
2018-11-04T02:29:53.754Z,95635.73
2018-11-04T02:32:25.639Z,95643.03
2018-11-04T02:34:57.441Z,95643.95
2018-11-04T02:37:29.272Z,95636.06
2018-11-04T02:40:01.154Z,95634.45
2018-11-04T02:42:32.987Z,95635.56
2018-11-04T02:45:05.432Z,95634.66
2018-11-04T02:47:37.664Z,95633.91
2018-11-04T02:50:10.939Z,95636.45
2018-11-04T02:52:42.756Z,95645.22
2018-11-04T02:55:14.581Z,95653.05
2018-11-04T02:57:46.406Z,95649.36
2018-11-04T03:00:18.195Z,95650.59
2018-11-04T03:02:50.029Z,95648.83
2018-11-04T03:05:21.833Z,95647.02
2018-11-04T03:07:53.696Z,95650.67
2018-11-04T03:10:25.508Z,95648.69
2018-11-04T03:12:57.349Z,95641.16
2018-11-04T03:15:29.131Z,95640.02
2018-11-04T03:18:00.977Z,95643.88
2018-11-04T03:20:32.789Z,95647.39
2018-11-04T03:23:04.756Z,95640.97
2018-11-04T03:25:36.559Z,95633.04
2018-11-04T03:28:09.939Z,95631.30
2018-11-04T03:30:41.739Z,95634.23
2018-11-04T03:33:13.614Z,95626.80
2018-11-04T03:35:45.425Z,95626.75
2018-11-04T03:38:17.233Z,95621.16
2018-11-04T03:40:49.055Z,95629.52
2018-11-04T03:43:20.903Z,95618.48
2018-11-04T03:45:52.717Z,95622.70
2018-11-04T03:48:24.543Z,95617.34
2018-11-04T03:50:56.362Z,95611.41
2018-11-04T03:53:28.187Z,95594.38
2018-11-04T03:56:00.014Z,95598.93
2018-11-04T03:58:31.829Z,95599.70
2018-11-04T04:01:03.660Z,95601.41
2018-11-04T04:03:35.474Z,95598.36
2018-11-04T04:06:07.521Z,95590.94
2018-11-04T04:08:39.334Z,95594.92
2018-11-04T04:11:11.139Z,95597.78
2018-11-04T04:13:42.972Z,95597.39
2018-11-04T04:16:14.780Z,95596.72
2018-11-04T04:18:46.585Z,95592.38
2018-11-04T04:21:18.400Z,95587.50
2018-11-04T04:23:50.208Z,95576.88
2018-11-04T04:26:22.077Z,95582.17
2018-11-04T04:28:53.936Z,95586.32
2018-11-04T04:31:25.738Z,95578.18
2018-11-04T04:33:57.557Z,95565.65
2018-11-04T04:36:29.371Z,95556.03
2018-11-04T04:39:01.211Z,95561.03
2018-11-04T04:41:33.543Z,95566.12
2018-11-04T04:44:05.504Z,95565.59
2018-11-04T04:46:37.310Z,95564.16
2018-11-04T04:49:09.220Z,95559.67
2018-11-04T04:51:41.537Z,95537.44
2018-11-04T04:54:13.561Z,95553.12
2018-11-04T04:56:45.377Z,95539.20
2018-11-04T04:59:17.217Z,95531.39
2018-11-04T05:01:49.037Z,95528.48
2018-11-04T05:04:22.502Z,95533.16
2018-11-04T05:06:54.319Z,95546.02
2018-11-04T05:09:26.172Z,95539.32
2018-11-04T05:12:00.885Z,95536.33
2018-11-04T05:14:32.716Z,95533.48
2018-11-04T05:17:04.548Z,95535.70
2018-11-04T05:19:36.871Z,95543.30
2018-11-04T05:22:09.147Z,95535.44
2018-11-04T05:24:40.939Z,95529.59
2018-11-04T05:27:12.745Z,95530.77
2018-11-04T05:29:44.590Z,95541.42
2018-11-04T05:32:16.389Z,95546.02
2018-11-04T05:34:48.226Z,95550.09
2018-11-04T05:37:20.063Z,95542.36
2018-11-04T05:39:51.895Z,95544.57
2018-11-04T05:42:23.711Z,95538.02
2018-11-04T05:44:55.541Z,95541.09
2018-11-04T05:47:27.348Z,95542.45
2018-11-04T05:50:02.069Z,95548.03
2018-11-04T05:52:33.876Z,95547.97
2018-11-04T05:55:07.145Z,95545.58
2018-11-04T05:57:39.180Z,95541.22
2018-11-04T06:00:12.176Z,95550.00
2018-11-04T06:02:43.981Z,95554.12
2018-11-04T06:05:15.794Z,95549.05
2018-11-04T06:07:47.604Z,95542.64
2018-11-04T06:10:19.461Z,95539.73
2018-11-04T06:12:51.291Z,95538.41
2018-11-04T06:15:23.126Z,95544.93
2018-11-04T06:17:54.935Z,95543.30
2018-11-04T06:20:26.757Z,95549.84
2018-11-04T06:22:58.540Z,95530.35
2018-11-04T06:25:30.364Z,95538.53
2018-11-04T06:28:04.722Z,95534.30
2018-11-04T06:30:36.564Z,95537.55
2018-11-04T06:33:08.457Z,95538.09
2018-11-04T06:35:40.805Z,95546.95
2018-11-04T06:38:12.660Z,95544.56
2018-11-04T06:40:44.494Z,95547.19
2018-11-04T06:43:16.450Z,95551.85
2018-11-04T06:45:48.320Z,95548.38
2018-11-04T06:48:20.142Z,95556.42
2018-11-04T06:50:51.992Z,95556.53
2018-11-04T06:53:24.245Z,95555.91
2018-11-04T06:55:56.057Z,95546.45
2018-11-04T06:58:27.860Z,95547.13
2018-11-04T07:00:59.658Z,95560.31
2018-11-04T07:03:31.475Z,95554.78
2018-11-04T07:06:03.290Z,95552.26
2018-11-04T07:08:35.084Z,95554.70
2018-11-04T07:11:06.942Z,95559.47
2018-11-04T07:13:38.718Z,95559.77
2018-11-04T07:16:10.542Z,95558.58
2018-11-04T07:18:42.453Z,95550.56
2018-11-04T07:21:14.252Z,95558.92
2018-11-04T07:23:46.110Z,95555.11
2018-11-04T07:26:18.440Z,95561.45
2018-11-04T07:28:50.242Z,95557.80
2018-11-04T07:31:22.110Z,95560.35
2018-11-04T07:33:54.123Z,95556.05
2018-11-04T07:36:25.970Z,95557.25
2018-11-04T07:38:57.772Z,95560.98
2018-11-04T07:41:29.605Z,95559.52
2018-11-04T07:44:04.126Z,95556.63
2018-11-04T07:46:35.937Z,95553.99
2018-11-04T07:49:08.023Z,95553.80
2018-11-04T07:51:39.983Z,95551.98
2018-11-04T07:54:11.699Z,95567.67
2018-11-04T07:56:45.776Z,95567.56
2018-11-04T07:59:17.604Z,95568.40
2018-11-04T08:01:49.456Z,95561.52
2018-11-04T08:04:21.300Z,95550.36
2018-11-04T08:06:53.109Z,95544.72
2018-11-04T08:09:24.920Z,95535.29
2018-11-04T08:11:56.761Z,95537.83
2018-11-04T08:14:28.594Z,95545.69
2018-11-04T08:17:00.444Z,95547.62
2018-11-04T08:19:32.289Z,95543.02
2018-11-04T08:22:04.115Z,95537.31
2018-11-04T08:24:35.940Z,95536.77
2018-11-04T08:27:07.999Z,95539.91
2018-11-04T08:29:39.857Z,95542.43
2018-11-04T08:32:11.665Z,95532.16
2018-11-04T08:34:43.489Z,95528.14
2018-11-04T08:37:15.469Z,95527.70
2018-11-04T08:39:47.440Z,95533.66
2018-11-04T08:42:19.252Z,95529.65
2018-11-04T08:44:51.057Z,95536.20
2018-11-04T08:47:22.888Z,95540.42
2018-11-04T08:49:54.804Z,95529.64
2018-11-04T08:52:26.569Z,95526.10
2018-11-04T08:54:58.540Z,95513.50
2018-11-04T08:57:30.379Z,95523.60
2018-11-04T09:00:02.263Z,95524.41
2018-11-04T09:02:34.024Z,95522.48
2018-11-04T09:05:06.368Z,95515.38
2018-11-04T09:07:38.206Z,95505.85
2018-11-04T09:10:15.630Z,95513.20
2018-11-04T09:12:47.519Z,95508.08
2018-11-04T09:15:19.354Z,95506.28
2018-11-04T09:17:51.182Z,95505.07
2018-11-04T09:20:23.007Z,95500.08
2018-11-04T09:22:55.337Z,95491.06
2018-11-04T09:25:27.200Z,95491.89
2018-11-04T09:27:59.037Z,95489.18
2018-11-04T09:30:30.890Z,95475.98
2018-11-04T09:33:02.722Z,95477.66
2018-11-04T09:35:34.659Z,95471.49
2018-11-04T09:38:06.579Z,95466.70
2018-11-04T09:40:38.737Z,95478.00
2018-11-04T09:43:10.567Z,95474.59
2018-11-04T09:45:42.402Z,95469.80
2018-11-04T09:48:16.361Z,95471.42
2018-11-04T09:50:46.516Z,95480.06
2018-11-04T09:53:18.358Z,95474.86
2018-11-04T09:55:50.262Z,95474.16
2018-11-04T09:58:22.091Z,95474.61
2018-11-04T10:00:53.900Z,95466.80
2018-11-04T10:03:25.766Z,95461.23
2018-11-04T10:05:57.610Z,95465.66
2018-11-04T10:08:29.424Z,95466.20
2018-11-04T10:11:01.280Z,95465.30
2018-11-04T10:13:33.201Z,95463.80
2018-11-04T10:16:05.298Z,95462.39
2018-11-04T10:18:37.330Z,95459.70
2018-11-04T10:21:09.747Z,95449.90
2018-11-04T10:23:41.014Z,95440.83
2018-11-04T10:26:12.852Z,95436.82
2018-11-04T10:28:44.690Z,95426.72
2018-11-04T10:31:16.561Z,95416.61
2018-11-04T10:33:50.830Z,95406.64
2018-11-04T10:36:20.296Z,95412.84
2018-11-04T10:38:52.459Z,95414.39
2018-11-04T10:41:24.310Z,95409.70
2018-11-04T10:43:56.124Z,95410.73
2018-11-04T10:46:27.935Z,95402.12
2018-11-04T10:49:01.682Z,95402.68
2018-11-04T10:51:33.518Z,95406.02
2018-11-04T10:54:05.367Z,95408.97
2018-11-04T10:56:37.294Z,95401.75
2018-11-04T10:59:09.238Z,95399.09
2018-11-04T11:01:41.068Z,95397.11
2018-11-04T11:04:12.922Z,95392.16
2018-11-04T11:06:44.787Z,95396.95
2018-11-04T11:09:17.730Z,95393.12
2018-11-04T11:11:49.554Z,95384.13
2018-11-04T11:14:21.423Z,95384.71
2018-11-04T11:16:53.432Z,95384.77
2018-11-04T11:19:25.592Z,95365.49
2018-11-04T11:22:00.142Z,95369.30
2018-11-04T11:24:32.629Z,95373.39
2018-11-04T11:27:04.489Z,95373.12
2018-11-04T11:29:36.368Z,95365.48
2018-11-04T11:32:08.360Z,95363.90
2018-11-04T11:34:40.414Z,95364.64
2018-11-04T11:37:12.608Z,95362.55
2018-11-04T11:39:44.741Z,95359.75
2018-11-04T11:42:16.667Z,95361.20
2018-11-04T11:44:50.217Z,95353.58
2018-11-04T11:47:23.919Z,95347.36
2018-11-04T11:49:56.024Z,95340.23
2018-11-04T11:52:27.883Z,95353.88
2018-11-04T11:54:59.760Z,95343.05
2018-11-04T11:57:31.605Z,95330.20
2018-11-04T12:00:03.453Z,95325.14
2018-11-04T12:02:35.284Z,95326.13
2018-11-04T12:05:07.405Z,95322.18
2018-11-04T12:07:39.498Z,95324.61
2018-11-04T12:10:13.530Z,95317.50
2018-11-04T12:12:45.353Z,95308.27
2018-11-04T12:15:17.236Z,95300.50
2018-11-04T12:17:49.093Z,95303.81
2018-11-04T12:20:20.891Z,95307.88
2018-11-04T12:22:52.673Z,95310.41
2018-11-04T12:25:24.556Z,95309.14
2018-11-04T12:27:56.387Z,95302.80
2018-11-04T12:30:28.217Z,95293.08
2018-11-04T12:33:02.817Z,95293.20
2018-11-04T12:35:34.706Z,95289.11
2018-11-04T12:38:08.679Z,95284.08
2018-11-04T12:40:38.657Z,95277.67
2018-11-04T12:43:10.569Z,95285.53
2018-11-04T12:45:42.499Z,95286.61
2018-11-04T12:48:14.263Z,95277.71
2018-11-04T12:50:46.249Z,95275.30
2018-11-04T12:53:18.063Z,95261.65
2018-11-04T12:55:52.620Z,95256.69
2018-11-04T12:58:24.513Z,95260.42
2018-11-04T13:00:56.356Z,95254.13
2018-11-04T13:03:29.001Z,95249.64
2018-11-04T13:06:00.838Z,95247.48
2018-11-04T13:08:32.673Z,95243.74
2018-11-04T13:11:04.555Z,95233.25
2018-11-04T13:13:36.380Z,95230.07
2018-11-04T13:16:08.318Z,95235.34
2018-11-04T13:18:40.188Z,95247.14
2018-11-04T13:21:12.135Z,95237.59
2018-11-04T13:23:43.924Z,95235.53
2018-11-04T13:26:15.960Z,95233.84
2018-11-04T13:28:47.763Z,95239.84
2018-11-04T13:31:19.793Z,95243.78
2018-11-04T13:33:51.635Z,95241.56
2018-11-04T13:36:23.469Z,95234.89
2018-11-04T13:38:55.286Z,95241.73
2018-11-04T13:41:27.245Z,95227.61
2018-11-04T13:43:59.112Z,95229.63
2018-11-04T13:46:31.019Z,95232.92
2018-11-04T13:49:02.902Z,95230.34
2018-11-04T13:51:34.812Z,95221.82
2018-11-04T13:54:06.730Z,95215.77
2018-11-04T13:56:38.578Z,95217.86
2018-11-04T13:59:10.436Z,95211.04
2018-11-04T14:01:42.419Z,95207.79
2018-11-04T14:04:14.261Z,95206.42
2018-11-04T14:06:46.164Z,95201.68
2018-11-04T14:09:18.025Z,95210.48
2018-11-04T14:11:49.943Z,95214.66
2018-11-04T14:14:21.822Z,95219.41
2018-11-04T14:16:53.713Z,95224.29
2018-11-04T14:19:25.560Z,95224.50
2018-11-04T14:21:57.436Z,95214.30
2018-11-04T14:24:29.390Z,95207.08
2018-11-04T14:27:01.247Z,95213.69
2018-11-04T14:29:33.069Z,95208.66
2018-11-04T14:32:04.919Z,95199.84
2018-11-04T14:34:36.777Z,95197.53
2018-11-04T14:37:08.776Z,95196.37
2018-11-04T14:39:40.509Z,95190.00
2018-11-04T14:42:12.398Z,95183.61
2018-11-04T14:44:44.477Z,95179.45
2018-11-04T14:47:16.346Z,95186.25
2018-11-04T14:49:48.202Z,95172.94
2018-11-04T14:52:20.171Z,95170.31
2018-11-04T14:54:51.910Z,95163.38
2018-11-04T14:57:23.837Z,95161.80
2018-11-04T14:59:55.738Z,95160.66
2018-11-04T15:02:27.545Z,95154.70
2018-11-04T15:05:02.021Z,95150.33
2018-11-04T15:07:33.895Z,95154.36
2018-11-04T15:10:06.219Z,95151.23
2018-11-04T15:12:38.221Z,95159.87
2018-11-04T15:15:15.554Z,95159.61
2018-11-04T15:17:47.394Z,95155.69
2018-11-04T15:20:19.235Z,95149.98
2018-11-04T15:22:52.146Z,95154.21
2018-11-04T15:25:26.321Z,95151.54
2018-11-04T15:27:58.193Z,95143.87
2018-11-04T15:30:30.026Z,95135.81
2018-11-04T15:33:01.895Z,95142.03
2018-11-04T15:35:33.767Z,95147.27
2018-11-04T15:38:05.714Z,95139.75
2018-11-04T15:40:37.649Z,95147.02
2018-11-04T15:43:09.463Z,95143.44
2018-11-04T15:45:41.331Z,95144.23
2018-11-04T15:48:15.341Z,95146.73
2018-11-04T15:50:47.232Z,95152.38
2018-11-04T15:53:21.827Z,95143.30
2018-11-04T15:55:53.777Z,95151.50
2018-11-04T15:58:25.640Z,95147.48
2018-11-04T16:00:57.487Z,95148.61
2018-11-04T16:03:29.375Z,95145.14
2018-11-04T16:06:01.234Z,95142.69
2018-11-04T16:08:33.067Z,95151.22
2018-11-04T16:11:04.899Z,95151.61
2018-11-04T16:13:36.762Z,95152.58
2018-11-04T16:16:08.950Z,95160.26
2018-11-04T16:18:40.864Z,95147.16
2018-11-04T16:21:12.645Z,95139.67
2018-11-04T16:23:47.049Z,95136.84
2018-11-04T16:26:19.112Z,95146.52
2018-11-04T16:28:53.090Z,95143.19
2018-11-04T16:31:24.962Z,95142.45
2018-11-04T16:33:56.853Z,95143.26
2018-11-04T16:36:28.724Z,95140.34
2018-11-04T16:39:00.677Z,95143.44
2018-11-04T16:41:32.511Z,95145.31
2018-11-04T16:44:04.497Z,95142.32
2018-11-04T16:46:36.234Z,95140.44
2018-11-04T16:49:08.845Z,95138.56
2018-11-04T16:51:40.738Z,95141.16
2018-11-04T16:54:12.637Z,95145.64
2018-11-04T16:56:44.572Z,95146.21
2018-11-04T16:59:16.424Z,95142.55
2018-11-04T17:01:48.270Z,95137.02
2018-11-04T17:04:20.257Z,95133.22
2018-11-04T17:06:51.929Z,95126.66
2018-11-04T17:09:24.059Z,95135.10
2018-11-04T17:11:55.985Z,95120.36
2018-11-04T17:14:28.005Z,95115.80
2018-11-04T17:16:59.841Z,95125.28
2018-11-04T17:19:31.726Z,95127.96
2018-11-04T17:22:03.763Z,95131.88
2018-11-04T17:24:35.650Z,95127.80
2018-11-04T17:27:07.709Z,95126.95
2018-11-04T17:29:39.593Z,95121.47
2018-11-04T17:32:11.490Z,95115.73
2018-11-04T17:34:43.334Z,95111.84
2018-11-04T17:37:15.174Z,95110.20
2018-11-04T17:39:47.062Z,95123.22
2018-11-04T17:42:18.907Z,95132.60
2018-11-04T17:44:50.879Z,95124.41
2018-11-04T17:47:22.581Z,95124.09
2018-11-04T17:49:54.417Z,95107.06
2018-11-04T17:52:26.334Z,95103.86
2018-11-04T17:54:58.202Z,95101.73
2018-11-04T17:57:30.080Z,95095.92
2018-11-04T18:00:02.032Z,95104.02
2018-11-04T18:02:33.865Z,95110.38
2018-11-04T18:05:05.944Z,95112.25
2018-11-04T18:07:37.691Z,95119.47
2018-11-04T18:10:09.868Z,95118.94
2018-11-04T18:12:41.917Z,95126.05
2018-11-04T18:15:14.505Z,95123.34
2018-11-04T18:17:46.380Z,95117.63
2018-11-04T18:20:18.276Z,95124.72
2018-11-04T18:22:50.204Z,95125.55
2018-11-04T18:25:21.951Z,95120.95
2018-11-04T18:27:53.787Z,95127.14
2018-11-04T18:30:25.748Z,95127.03
2018-11-04T18:32:57.664Z,95114.70
2018-11-04T18:35:29.575Z,95118.31
2018-11-04T18:38:01.400Z,95123.09
2018-11-04T18:40:33.226Z,95126.12
2018-11-04T18:43:05.058Z,95121.59
2018-11-04T18:45:36.942Z,95120.91
2018-11-04T18:48:08.954Z,95116.31
2018-11-04T18:50:40.952Z,95114.73
2018-11-04T18:53:12.674Z,95117.09
2018-11-04T18:55:44.628Z,95114.43
2018-11-04T18:58:16.441Z,95095.04
2018-11-04T19:00:48.379Z,95101.80
2018-11-04T19:03:20.210Z,95111.91
2018-11-04T19:05:52.052Z,95106.72
2018-11-04T19:08:23.877Z,95108.16
2018-11-04T19:10:55.766Z,95115.33
2018-11-04T19:13:27.582Z,95106.80
2018-11-04T19:15:59.447Z,95105.93
2018-11-04T19:18:31.276Z,95099.41
2018-11-04T19:21:03.181Z,95099.84
2018-11-04T19:23:35.055Z,95097.38
2018-11-04T19:26:09.857Z,95092.42
2018-11-04T19:28:41.738Z,95095.62
2018-11-04T19:31:13.642Z,95094.75
2018-11-04T19:33:45.459Z,95088.25
2018-11-04T19:36:17.353Z,95090.51
2018-11-04T19:38:49.187Z,95088.64
2018-11-04T19:41:21.073Z,95086.28
2018-11-04T19:43:52.908Z,95074.33
2018-11-04T19:46:24.786Z,95065.42
2018-11-04T19:48:56.780Z,95075.03
2018-11-04T19:51:28.634Z,95086.34
2018-11-04T19:54:00.465Z,95083.16
2018-11-04T19:56:32.383Z,95063.13
2018-11-04T19:59:04.175Z,95066.52
2018-11-04T20:01:35.969Z,95080.44
2018-11-04T20:04:07.958Z,95089.83
2018-11-04T20:06:39.828Z,95089.49
2018-11-04T20:09:16.146Z,95087.13
2018-11-04T20:11:48.045Z,95092.05
2018-11-04T20:14:23.561Z,95097.14
2018-11-04T20:16:55.612Z,95093.55
2018-11-04T20:19:44.407Z,95083.08
2018-11-04T20:22:16.241Z,95083.64
2018-11-04T20:25:07.351Z,95079.55
2018-11-04T20:27:39.296Z,95086.56
2018-11-04T20:30:12.661Z,95068.59
2018-11-04T20:33:03.547Z,95067.56
2018-11-04T20:35:35.397Z,95069.83
2018-11-04T20:38:10.068Z,95077.70
2018-11-04T20:40:59.260Z,95096.75
2018-11-04T20:43:31.097Z,95103.39
2018-11-04T20:46:02.962Z,95076.21
2018-11-04T20:48:52.079Z,95083.08
2018-11-04T20:51:23.910Z,95082.99
2018-11-04T20:53:55.751Z,95093.13
2018-11-04T20:56:44.842Z,95079.69
2018-11-04T20:59:16.708Z,95076.52
2018-11-04T21:01:48.620Z,95070.45
2018-11-04T21:04:20.423Z,95063.81
2018-11-04T21:06:52.269Z,95066.27
2018-11-04T21:09:24.083Z,95070.97
2018-11-04T21:11:55.972Z,95073.94
2018-11-04T21:14:27.956Z,95067.31
2018-11-04T21:16:59.828Z,95066.55
2018-11-04T21:19:31.799Z,95072.27
2018-11-04T21:22:03.636Z,95064.38
2018-11-04T21:24:35.477Z,95057.24
2018-11-04T21:27:07.999Z,95036.76
2018-11-04T21:29:40.099Z,95038.36
2018-11-04T21:32:11.678Z,95030.23
2018-11-04T21:34:43.555Z,95024.53
2018-11-04T21:37:15.381Z,95042.13
2018-11-04T21:39:47.253Z,95039.56
2018-11-04T21:42:19.251Z,95044.16
2018-11-04T21:44:51.055Z,95040.71
2018-11-04T21:47:22.810Z,95040.57
2018-11-04T21:49:54.631Z,95038.98
2018-11-04T21:52:26.479Z,95040.42
2018-11-04T21:54:58.308Z,95047.28
2018-11-04T21:57:30.213Z,95054.05
2018-11-04T22:00:01.957Z,95032.78
2018-11-04T22:02:33.847Z,95018.01
2018-11-04T22:05:05.856Z,95031.95
2018-11-04T22:07:37.657Z,95034.52
2018-11-04T22:10:13.124Z,95029.02
2018-11-04T22:12:44.961Z,95026.13
2018-11-04T22:15:16.893Z,95018.48
2018-11-04T22:17:48.729Z,95012.41
2018-11-04T22:20:20.536Z,95022.92
2018-11-04T22:22:52.335Z,95033.45
2018-11-04T22:25:24.196Z,95023.49
2018-11-04T22:27:56.043Z,95020.83
2018-11-04T22:30:27.921Z,95028.73
2018-11-04T22:32:59.747Z,95028.84
2018-11-04T22:35:31.592Z,95003.02
2018-11-04T22:38:03.468Z,95008.33
2018-11-04T22:40:35.354Z,95030.41
2018-11-04T22:43:07.145Z,95032.31
2018-11-04T22:45:38.957Z,95027.20
2018-11-04T22:48:10.761Z,95010.61
2018-11-04T22:50:42.571Z,95023.22
2018-11-04T22:53:14.364Z,95015.36
2018-11-04T22:55:46.240Z,95013.02
2018-11-04T22:58:18.007Z,95014.47
2018-11-04T23:01:03.602Z,95005.76
2018-11-04T23:03:35.437Z,95001.67
2018-11-04T23:06:08.348Z,95009.08
2018-11-04T23:08:40.175Z,94992.55
2018-11-04T23:11:12.011Z,94988.32
2018-11-04T23:13:43.922Z,94984.33
2018-11-04T23:16:15.663Z,94980.55
2018-11-04T23:18:47.833Z,94985.27
2018-11-04T23:21:19.570Z,94972.74
2018-11-04T23:23:51.368Z,94981.13
2018-11-04T23:26:23.194Z,94963.47
2018-11-04T23:28:55.055Z,94965.64
2018-11-04T23:31:26.947Z,94963.78
2018-11-04T23:33:58.709Z,94969.87
2018-11-04T23:36:30.542Z,94961.83
2018-11-04T23:39:02.347Z,94948.64
2018-11-04T23:41:34.194Z,94960.38
2018-11-04T23:44:06.027Z,94963.31
2018-11-04T23:46:37.834Z,94970.65
2018-11-04T23:49:09.690Z,94960.57
2018-11-04T23:51:41.497Z,94965.33
2018-11-04T23:54:13.630Z,94952.38
2018-11-04T23:56:47.248Z,94947.37
2018-11-04T23:59:19.092Z,94952.47
